sensor_id;sensor_type;location;lat;lon;timestamp;temperature;humidity
5150;DHT22;2593;52.466;13.436;2023-03-01T00:00:37;0.70;1.00
5150;DHT22;2593;52.466;13.436;2023-03-01T00:03:03;0.80;1.00
5150;DHT22;2593;52.466;13.436;2023-03-01T00:05:28;0.70;1.00
5150;DHT22;2593;52.466;13.436;2023-03-01T00:07:54;0.70;1.00
5150;DHT22;2593;52.466;13.436;2023-03-01T00:10:20;0.60;1.00
5150;DHT22;2593;52.466;13.436;2023-03-01T00:12:45;0.60;1.00
5150;DHT22;2593;52.466;13.436;2023-03-01T00:15:11;0.50;1.00
5150;DHT22;2593;52.466;13.436;2023-03-01T00:17:37;0.50;3.90
5150;DHT22;2593;52.466;13.436;2023-03-01T00:20:03;0.50;2.50
5150;DHT22;2593;52.466;13.436;2023-03-01T00:22:33;0.60;1.00
5150;DHT22;2593;52.466;13.436;2023-03-01T00:24:58;0.50;3.70
5150;DHT22;2593;52.466;13.436;2023-03-01T00:27:24;0.50;15.50
5150;DHT22;2593;52.466;13.436;2023-03-01T00:29:50;0.50;12.90
5150;DHT22;2593;52.466;13.436;2023-03-01T00:32:15;0.60;9.20
5150;DHT22;2593;52.466;13.436;2023-03-01T00:34:41;0.50;6.20
5150;DHT22;2593;52.466;13.436;2023-03-01T00:37:06;0.40;20.90
5150;DHT22;2593;52.466;13.436;2023-03-01T00:39:32;0.40;31.20
5150;DHT22;2593;52.466;13.436;2023-03-01T00:41:58;0.50;32.20
5150;DHT22;2593;52.466;13.436;2023-03-01T00:44:24;0.50;21.40
5150;DHT22;2593;52.466;13.436;2023-03-01T00:46:50;0.30;25.10
5150;DHT22;2593;52.466;13.436;2023-03-01T00:49:16;0.30;33.30
5150;DHT22;2593;52.466;13.436;2023-03-01T00:51:41;0.20;38.30
5150;DHT22;2593;52.466;13.436;2023-03-01T00:54:08;0.10;44.50
5150;DHT22;2593;52.466;13.436;2023-03-01T00:56:34;0.10;67.20
5150;DHT22;2593;52.466;13.436;2023-03-01T00:59:00;0.10;81.80
5150;DHT22;2593;52.466;13.436;2023-03-01T01:01:28;0.10;92.70
5150;DHT22;2593;52.466;13.436;2023-03-01T01:03:57;0.00;95.10
5150;DHT22;2593;52.466;13.436;2023-03-01T01:06:29;0.00;97.00
5150;DHT22;2593;52.466;13.436;2023-03-01T01:08:55;0.00;93.90
5150;DHT22;2593;52.466;13.436;2023-03-01T01:11:23;0.00;71.00
5150;DHT22;2593;52.466;13.436;2023-03-01T01:13:49;0.10;71.10
5150;DHT22;2593;52.466;13.436;2023-03-01T01:16:17;0.20;63.30
5150;DHT22;2593;52.466;13.436;2023-03-01T01:18:44;0.10;49.40
5150;DHT22;2593;52.466;13.436;2023-03-01T01:21:11;0.00;50.50
5150;DHT22;2593;52.466;13.436;2023-03-01T01:23:38;0.00;72.80
5150;DHT22;2593;52.466;13.436;2023-03-01T01:26:10;0.00;85.10
5150;DHT22;2593;52.466;13.436;2023-03-01T01:28:36;0.00;77.50
5150;DHT22;2593;52.466;13.436;2023-03-01T01:31:03;-0.10;87.50
5150;DHT22;2593;52.466;13.436;2023-03-01T01:33:29;-0.10;73.50
5150;DHT22;2593;52.466;13.436;2023-03-01T01:35:54;-0.10;78.00
5150;DHT22;2593;52.466;13.436;2023-03-01T01:38:20;-0.20;90.60
5150;DHT22;2593;52.466;13.436;2023-03-01T01:40:47;-0.10;99.90
5150;DHT22;2593;52.466;13.436;2023-03-01T01:43:35;-0.10;99.50
5150;DHT22;2593;52.466;13.436;2023-03-01T01:46:05;-0.10;99.90
5150;DHT22;2593;52.466;13.436;2023-03-01T01:48:43;-0.10;99.90
5150;DHT22;2593;52.466;13.436;2023-03-01T01:51:13;-0.20;99.90
5150;DHT22;2593;52.466;13.436;2023-03-01T01:53:40;-0.10;99.90
5150;DHT22;2593;52.466;13.436;2023-03-01T01:56:09;0.00;99.90
5150;DHT22;2593;52.466;13.436;2023-03-01T01:58:36;0.00;99.90
5150;DHT22;2593;52.466;13.436;2023-03-01T02:01:03;0.00;99.90
5150;DHT22;2593;52.466;13.436;2023-03-01T02:03:33;0.00;99.90
5150;DHT22;2593;52.466;13.436;2023-03-01T02:08:57;0.00;99.90
5150;DHT22;2593;52.466;13.436;2023-03-01T02:11:25;0.00;99.90
5150;DHT22;2593;52.466;13.436;2023-03-01T02:13:52;0.00;99.90
5150;DHT22;2593;52.466;13.436;2023-03-01T02:16:19;0.00;99.90
5150;DHT22;2593;52.466;13.436;2023-03-01T02:18:45;-0.10;99.90
5150;DHT22;2593;52.466;13.436;2023-03-01T02:21:35;-0.10;99.90
5150;DHT22;2593;52.466;13.436;2023-03-01T02:27:12;-0.30;99.90
5150;DHT22;2593;52.466;13.436;2023-03-01T02:29:38;-0.30;99.90
5150;DHT22;2593;52.466;13.436;2023-03-01T02:32:04;-0.30;99.90
5150;DHT22;2593;52.466;13.436;2023-03-01T02:34:31;-0.30;99.90
5150;DHT22;2593;52.466;13.436;2023-03-01T02:37:04;-0.20;99.90
5150;DHT22;2593;52.466;13.436;2023-03-01T02:39:37;-0.30;99.90
5150;DHT22;2593;52.466;13.436;2023-03-01T02:42:09;-0.40;99.90
5150;DHT22;2593;52.466;13.436;2023-03-01T02:44:36;-0.40;99.90
5150;DHT22;2593;52.466;13.436;2023-03-01T02:47:03;-0.60;99.90
5150;DHT22;2593;52.466;13.436;2023-03-01T02:49:32;-0.40;99.90
5150;DHT22;2593;52.466;13.436;2023-03-01T02:54:59;-0.40;1.00
5150;DHT22;2593;52.466;13.436;2023-03-01T02:57:27;-0.50;1.00
5150;DHT22;2593;52.466;13.436;2023-03-01T02:59:54;-0.50;1.00
5150;DHT22;2593;52.466;13.436;2023-03-01T03:02:22;-0.50;1.00
5150;DHT22;2593;52.466;13.436;2023-03-01T03:07:32;-0.50;1.00
5150;DHT22;2593;52.466;13.436;2023-03-01T03:10:00;-0.50;1.00
5150;DHT22;2593;52.466;13.436;2023-03-01T03:12:25;-0.50;1.00
5150;DHT22;2593;52.466;13.436;2023-03-01T03:14:51;-0.60;1.00
5150;DHT22;2593;52.466;13.436;2023-03-01T03:17:17;-0.50;1.00
5150;DHT22;2593;52.466;13.436;2023-03-01T03:19:42;-0.60;1.00
5150;DHT22;2593;52.466;13.436;2023-03-01T03:22:11;-0.60;1.00
5150;DHT22;2593;52.466;13.436;2023-03-01T03:24:37;-0.60;1.00
5150;DHT22;2593;52.466;13.436;2023-03-01T03:27:04;-0.60;1.00
5150;DHT22;2593;52.466;13.436;2023-03-01T03:29:30;-0.70;99.90
5150;DHT22;2593;52.466;13.436;2023-03-01T03:31:56;-0.70;1.00
5150;DHT22;2593;52.466;13.436;2023-03-01T03:34:21;-0.70;1.00
5150;DHT22;2593;52.466;13.436;2023-03-01T03:36:47;-0.70;99.90
5150;DHT22;2593;52.466;13.436;2023-03-01T03:39:13;-0.70;99.90
5150;DHT22;2593;52.466;13.436;2023-03-01T03:41:38;-0.70;99.90
5150;DHT22;2593;52.466;13.436;2023-03-01T03:44:04;-0.70;99.90
5150;DHT22;2593;52.466;13.436;2023-03-01T03:46:30;-0.80;99.90
5150;DHT22;2593;52.466;13.436;2023-03-01T03:48:55;-0.80;99.90
5150;DHT22;2593;52.466;13.436;2023-03-01T03:51:21;-0.80;99.90
5150;DHT22;2593;52.466;13.436;2023-03-01T03:53:48;-0.80;99.90
5150;DHT22;2593;52.466;13.436;2023-03-01T03:56:13;-0.90;99.90
5150;DHT22;2593;52.466;13.436;2023-03-01T03:58:39;-0.90;99.90
5150;DHT22;2593;52.466;13.436;2023-03-01T04:01:05;-0.90;99.90
5150;DHT22;2593;52.466;13.436;2023-03-01T04:03:32;-0.90;99.90
5150;DHT22;2593;52.466;13.436;2023-03-01T04:05:58;-0.90;99.90
5150;DHT22;2593;52.466;13.436;2023-03-01T04:08:24;-0.90;99.90
5150;DHT22;2593;52.466;13.436;2023-03-01T04:10:52;-0.90;99.90
5150;DHT22;2593;52.466;13.436;2023-03-01T04:13:20;-1.00;99.90
5150;DHT22;2593;52.466;13.436;2023-03-01T04:15:50;-0.90;99.90
5150;DHT22;2593;52.466;13.436;2023-03-01T04:18:17;-0.90;99.90
5150;DHT22;2593;52.466;13.436;2023-03-01T04:20:44;-1.00;99.90
5150;DHT22;2593;52.466;13.436;2023-03-01T04:23:15;-1.00;99.90
5150;DHT22;2593;52.466;13.436;2023-03-01T04:25:49;-1.00;99.90
5150;DHT22;2593;52.466;13.436;2023-03-01T04:28:20;-1.00;99.90
5150;DHT22;2593;52.466;13.436;2023-03-01T04:30:46;-1.00;99.90
5150;DHT22;2593;52.466;13.436;2023-03-01T04:33:12;-1.00;99.90
5150;DHT22;2593;52.466;13.436;2023-03-01T04:35:38;-1.00;99.90
5150;DHT22;2593;52.466;13.436;2023-03-01T04:38:04;-1.00;99.90
5150;DHT22;2593;52.466;13.436;2023-03-01T04:40:30;-1.00;99.90
5150;DHT22;2593;52.466;13.436;2023-03-01T04:42:56;-0.90;99.90
5150;DHT22;2593;52.466;13.436;2023-03-01T04:45:23;-1.00;99.90
5150;DHT22;2593;52.466;13.436;2023-03-01T04:47:48;-1.00;99.90
5150;DHT22;2593;52.466;13.436;2023-03-01T04:50:16;-1.10;99.90
5150;DHT22;2593;52.466;13.436;2023-03-01T04:52:43;-1.10;99.90
5150;DHT22;2593;52.466;13.436;2023-03-01T04:55:10;-1.00;99.90
5150;DHT22;2593;52.466;13.436;2023-03-01T04:57:35;-1.10;99.90
5150;DHT22;2593;52.466;13.436;2023-03-01T05:00:02;-1.20;99.90
5150;DHT22;2593;52.466;13.436;2023-03-01T05:05:14;-1.20;1.00
5150;DHT22;2593;52.466;13.436;2023-03-01T05:07:41;-1.20;1.00
5150;DHT22;2593;52.466;13.436;2023-03-01T05:10:07;-1.20;1.00
5150;DHT22;2593;52.466;13.436;2023-03-01T05:12:33;-1.20;1.00
5150;DHT22;2593;52.466;13.436;2023-03-01T05:14:58;-1.20;1.00
5150;DHT22;2593;52.466;13.436;2023-03-01T05:17:24;-1.20;1.00
5150;DHT22;2593;52.466;13.436;2023-03-01T05:19:50;-1.20;1.00
5150;DHT22;2593;52.466;13.436;2023-03-01T05:22:16;-1.20;1.00
5150;DHT22;2593;52.466;13.436;2023-03-01T05:24:41;-1.10;1.00
5150;DHT22;2593;52.466;13.436;2023-03-01T05:27:07;-1.10;1.00
5150;DHT22;2593;52.466;13.436;2023-03-01T05:29:33;-1.10;1.00
5150;DHT22;2593;52.466;13.436;2023-03-01T05:32:01;-1.10;1.00
5150;DHT22;2593;52.466;13.436;2023-03-01T05:34:31;-1.00;1.00
5150;DHT22;2593;52.466;13.436;2023-03-01T05:36:57;-1.00;99.90
5150;DHT22;2593;52.466;13.436;2023-03-01T05:39:25;-1.10;1.00
5150;DHT22;2593;52.466;13.436;2023-03-01T05:41:58;-1.10;1.00
5150;DHT22;2593;52.466;13.436;2023-03-01T05:44:25;-1.10;1.00
5150;DHT22;2593;52.466;13.436;2023-03-01T05:46:51;-1.20;1.00
5150;DHT22;2593;52.466;13.436;2023-03-01T05:49:17;-1.20;1.00
5150;DHT22;2593;52.466;13.436;2023-03-01T05:51:47;-1.20;1.00
5150;DHT22;2593;52.466;13.436;2023-03-01T05:54:14;-1.20;1.00
5150;DHT22;2593;52.466;13.436;2023-03-01T05:56:40;-1.20;1.00
5150;DHT22;2593;52.466;13.436;2023-03-01T05:59:06;-1.20;1.00
5150;DHT22;2593;52.466;13.436;2023-03-01T06:01:32;-1.20;1.00
5150;DHT22;2593;52.466;13.436;2023-03-01T06:03:58;-1.20;1.00
5150;DHT22;2593;52.466;13.436;2023-03-01T06:06:24;-1.20;1.00
5150;DHT22;2593;52.466;13.436;2023-03-01T06:08:51;-1.10;1.00
5150;DHT22;2593;52.466;13.436;2023-03-01T06:11:16;-1.10;1.00
5150;DHT22;2593;52.466;13.436;2023-03-01T06:13:43;-1.00;1.00
5150;DHT22;2593;52.466;13.436;2023-03-01T06:16:09;-1.00;1.00
5150;DHT22;2593;52.466;13.436;2023-03-01T06:18:35;-1.00;1.00
5150;DHT22;2593;52.466;13.436;2023-03-01T06:21:01;-1.00;1.00
5150;DHT22;2593;52.466;13.436;2023-03-01T06:23:27;-1.00;1.00
5150;DHT22;2593;52.466;13.436;2023-03-01T06:25:53;-1.00;1.00
5150;DHT22;2593;52.466;13.436;2023-03-01T06:28:18;-1.00;1.00
5150;DHT22;2593;52.466;13.436;2023-03-01T06:30:44;-1.00;1.00
5150;DHT22;2593;52.466;13.436;2023-03-01T06:33:10;-0.90;1.00
5150;DHT22;2593;52.466;13.436;2023-03-01T06:35:36;-0.90;1.00
5150;DHT22;2593;52.466;13.436;2023-03-01T06:38:03;-0.80;1.00
5150;DHT22;2593;52.466;13.436;2023-03-01T06:40:29;-0.70;1.00
5150;DHT22;2593;52.466;13.436;2023-03-01T06:42:56;-0.70;1.00
5150;DHT22;2593;52.466;13.436;2023-03-01T06:45:23;-0.60;1.00
5150;DHT22;2593;52.466;13.436;2023-03-01T06:47:48;-0.50;1.00
5150;DHT22;2593;52.466;13.436;2023-03-01T06:50:15;-0.50;99.90
5150;DHT22;2593;52.466;13.436;2023-03-01T06:52:41;-0.40;99.90
5150;DHT22;2593;52.466;13.436;2023-03-01T06:55:09;-0.30;99.90
5150;DHT22;2593;52.466;13.436;2023-03-01T06:57:35;-0.30;99.90
5150;DHT22;2593;52.466;13.436;2023-03-01T07:00:00;-0.20;99.90
5150;DHT22;2593;52.466;13.436;2023-03-01T07:02:26;-0.10;99.90
5150;DHT22;2593;52.466;13.436;2023-03-01T07:04:52;0.00;99.90
5150;DHT22;2593;52.466;13.436;2023-03-01T07:07:18;0.00;99.90
5150;DHT22;2593;52.466;13.436;2023-03-01T07:09:48;0.10;99.90
5150;DHT22;2593;52.466;13.436;2023-03-01T07:12:14;0.20;99.90
5150;DHT22;2593;52.466;13.436;2023-03-01T07:14:39;0.30;99.90
5150;DHT22;2593;52.466;13.436;2023-03-01T07:17:05;0.30;99.90
5150;DHT22;2593;52.466;13.436;2023-03-01T07:19:31;0.40;99.90
5150;DHT22;2593;52.466;13.436;2023-03-01T07:21:57;0.50;99.90
5150;DHT22;2593;52.466;13.436;2023-03-01T07:24:23;0.60;99.90
5150;DHT22;2593;52.466;13.436;2023-03-01T07:26:50;0.60;99.90
5150;DHT22;2593;52.466;13.436;2023-03-01T07:29:15;0.70;99.90
5150;DHT22;2593;52.466;13.436;2023-03-01T07:31:41;0.80;99.90
5150;DHT22;2593;52.466;13.436;2023-03-01T07:34:07;0.80;99.90
5150;DHT22;2593;52.466;13.436;2023-03-01T07:36:32;0.90;99.90
5150;DHT22;2593;52.466;13.436;2023-03-01T07:38:58;1.00;99.90
5150;DHT22;2593;52.466;13.436;2023-03-01T07:41:24;1.00;99.90
5150;DHT22;2593;52.466;13.436;2023-03-01T07:43:50;1.10;99.90
5150;DHT22;2593;52.466;13.436;2023-03-01T07:46:16;1.20;98.10
5150;DHT22;2593;52.466;13.436;2023-03-01T07:48:43;1.40;78.30
5150;DHT22;2593;52.466;13.436;2023-03-01T07:51:09;1.50;67.10
5150;DHT22;2593;52.466;13.436;2023-03-01T07:53:36;1.70;70.10
5150;DHT22;2593;52.466;13.436;2023-03-01T07:56:06;2.00;76.40
5150;DHT22;2593;52.466;13.436;2023-03-01T07:58:35;2.30;1.00
5150;DHT22;2593;52.466;13.436;2023-03-01T08:01:02;2.50;1.00
5150;DHT22;2593;52.466;13.436;2023-03-01T08:03:28;2.60;1.00
5150;DHT22;2593;52.466;13.436;2023-03-01T08:05:54;2.70;1.00
5150;DHT22;2593;52.466;13.436;2023-03-01T08:08:19;2.80;1.00
5150;DHT22;2593;52.466;13.436;2023-03-01T08:10:45;2.80;1.00
5150;DHT22;2593;52.466;13.436;2023-03-01T08:13:11;2.90;1.00
5150;DHT22;2593;52.466;13.436;2023-03-01T08:15:36;3.00;1.00
5150;DHT22;2593;52.466;13.436;2023-03-01T08:18:02;3.00;1.00
5150;DHT22;2593;52.466;13.436;2023-03-01T08:20:27;3.00;1.00
5150;DHT22;2593;52.466;13.436;2023-03-01T08:22:53;3.10;1.00
5150;DHT22;2593;52.466;13.436;2023-03-01T08:25:19;3.20;1.00
5150;DHT22;2593;52.466;13.436;2023-03-01T08:27:44;3.70;1.00
5150;DHT22;2593;52.466;13.436;2023-03-01T08:30:10;4.80;1.00
5150;DHT22;2593;52.466;13.436;2023-03-01T08:32:39;7.00;1.00
5150;DHT22;2593;52.466;13.436;2023-03-01T08:35:05;9.10;1.00
5150;DHT22;2593;52.466;13.436;2023-03-01T08:37:31;11.20;1.00
5150;DHT22;2593;52.466;13.436;2023-03-01T08:39:59;13.10;1.00
5150;DHT22;2593;52.466;13.436;2023-03-01T08:42:26;14.50;1.00
5150;DHT22;2593;52.466;13.436;2023-03-01T08:44:51;15.40;1.00
5150;DHT22;2593;52.466;13.436;2023-03-01T08:47:17;16.30;1.00
5150;DHT22;2593;52.466;13.436;2023-03-01T08:49:42;17.20;1.00
5150;DHT22;2593;52.466;13.436;2023-03-01T08:52:08;17.80;1.00
5150;DHT22;2593;52.466;13.436;2023-03-01T08:54:34;18.40;1.00
5150;DHT22;2593;52.466;13.436;2023-03-01T08:57:01;18.50;1.00
5150;DHT22;2593;52.466;13.436;2023-03-01T08:59:27;18.60;1.00
5150;DHT22;2593;52.466;13.436;2023-03-01T09:01:55;18.10;1.00
5150;DHT22;2593;52.466;13.436;2023-03-01T09:04:20;17.80;1.00
5150;DHT22;2593;52.466;13.436;2023-03-01T09:06:46;18.30;1.00
5150;DHT22;2593;52.466;13.436;2023-03-01T09:09:16;18.70;1.00
5150;DHT22;2593;52.466;13.436;2023-03-01T09:11:43;19.00;1.00
5150;DHT22;2593;52.466;13.436;2023-03-01T09:14:12;20.10;1.00
5150;DHT22;2593;52.466;13.436;2023-03-01T09:16:37;20.90;1.00
5150;DHT22;2593;52.466;13.436;2023-03-01T09:19:04;20.20;1.00
5150;DHT22;2593;52.466;13.436;2023-03-01T09:21:29;20.50;1.00
5150;DHT22;2593;52.466;13.436;2023-03-01T09:23:56;20.60;1.00
5150;DHT22;2593;52.466;13.436;2023-03-01T09:26:23;20.90;1.00
5150;DHT22;2593;52.466;13.436;2023-03-01T09:28:51;21.80;1.00
5150;DHT22;2593;52.466;13.436;2023-03-01T09:31:19;22.30;1.00
5150;DHT22;2593;52.466;13.436;2023-03-01T09:33:50;22.00;1.00
5150;DHT22;2593;52.466;13.436;2023-03-01T09:36:18;21.10;1.00
5150;DHT22;2593;52.466;13.436;2023-03-01T09:38:44;21.10;1.00
5150;DHT22;2593;52.466;13.436;2023-03-01T09:44:13;22.30;1.00
5150;DHT22;2593;52.466;13.436;2023-03-01T09:46:43;22.00;1.00
5150;DHT22;2593;52.466;13.436;2023-03-01T09:49:14;21.10;1.00
5150;DHT22;2593;52.466;13.436;2023-03-01T09:51:43;21.80;1.00
5150;DHT22;2593;52.466;13.436;2023-03-01T09:54:12;22.70;1.00
5150;DHT22;2593;52.466;13.436;2023-03-01T09:56:44;22.80;1.00
5150;DHT22;2593;52.466;13.436;2023-03-01T10:04:45;24.80;1.00
5150;DHT22;2593;52.466;13.436;2023-03-01T10:07:29;25.70;1.00
5150;DHT22;2593;52.466;13.436;2023-03-01T10:09:57;26.30;1.00
5150;DHT22;2593;52.466;13.436;2023-03-01T10:12:27;26.80;1.00
5150;DHT22;2593;52.466;13.436;2023-03-01T10:20:21;25.20;1.00
5150;DHT22;2593;52.466;13.436;2023-03-01T10:22:48;25.60;1.00
5150;DHT22;2593;52.466;13.436;2023-03-01T10:27:53;25.10;1.00
5150;DHT22;2593;52.466;13.436;2023-03-01T10:30:39;24.40;1.00
5150;DHT22;2593;52.466;13.436;2023-03-01T10:33:20;24.30;1.00
5150;DHT22;2593;52.466;13.436;2023-03-01T10:35:48;24.10;1.00
5150;DHT22;2593;52.466;13.436;2023-03-01T10:38:16;24.90;1.00
5150;DHT22;2593;52.466;13.436;2023-03-01T10:41:04;24.50;1.00
5150;DHT22;2593;52.466;13.436;2023-03-01T10:43:52;22.90;1.00
5150;DHT22;2593;52.466;13.436;2023-03-01T10:46:32;18.80;1.00
5150;DHT22;2593;52.466;13.436;2023-03-01T10:49:22;16.70;1.00
5150;DHT22;2593;52.466;13.436;2023-03-01T10:51:52;14.60;1.00
5150;DHT22;2593;52.466;13.436;2023-03-01T10:54:33;12.80;1.00
5150;DHT22;2593;52.466;13.436;2023-03-01T10:57:01;12.10;1.00
5150;DHT22;2593;52.466;13.436;2023-03-01T10:59:30;10.80;1.00
5150;DHT22;2593;52.466;13.436;2023-03-01T11:07:53;8.90;1.00
5150;DHT22;2593;52.466;13.436;2023-03-01T11:10:22;8.20;1.00
5150;DHT22;2593;52.466;13.436;2023-03-01T11:12:48;8.10;1.00
5150;DHT22;2593;52.466;13.436;2023-03-01T11:15:27;8.00;1.00
5150;DHT22;2593;52.466;13.436;2023-03-01T11:17:55;7.60;1.00
5150;DHT22;2593;52.466;13.436;2023-03-01T11:20:54;7.40;1.00
5150;DHT22;2593;52.466;13.436;2023-03-01T11:23:14;7.40;1.00
5150;DHT22;2593;52.466;13.436;2023-03-01T11:25:43;7.30;1.00
5150;DHT22;2593;52.466;13.436;2023-03-01T11:28:14;7.20;1.00
5150;DHT22;2593;52.466;13.436;2023-03-01T11:30:53;6.90;1.00
5150;DHT22;2593;52.466;13.436;2023-03-01T11:33:35;6.90;1.00
5150;DHT22;2593;52.466;13.436;2023-03-01T11:36:28;6.80;1.00
5150;DHT22;2593;52.466;13.436;2023-03-01T11:38:57;6.90;1.00
5150;DHT22;2593;52.466;13.436;2023-03-01T11:41:30;6.70;1.00
5150;DHT22;2593;52.466;13.436;2023-03-01T11:49:30;7.00;1.00
5150;DHT22;2593;52.466;13.436;2023-03-01T12:08:48;7.20;1.00
5150;DHT22;2593;52.466;13.436;2023-03-01T12:44:35;7.20;1.00
5150;DHT22;2593;52.466;13.436;2023-03-01T12:49:57;7.30;1.00
5150;DHT22;2593;52.466;13.436;2023-03-01T12:52:39;7.30;1.00
5150;DHT22;2593;52.466;13.436;2023-03-01T12:55:37;7.40;1.00
5150;DHT22;2593;52.466;13.436;2023-03-01T13:15:38;7.50;1.00
5150;DHT22;2593;52.466;13.436;2023-03-01T13:20:48;7.50;1.00
5150;DHT22;2593;52.466;13.436;2023-03-01T13:26:12;7.50;1.00
5150;DHT22;2593;52.466;13.436;2023-03-01T13:28:46;7.50;1.00
5150;DHT22;2593;52.466;13.436;2023-03-01T13:33:51;7.60;1.00
5150;DHT22;2593;52.466;13.436;2023-03-01T13:46:50;7.40;1.00
5150;DHT22;2593;52.466;13.436;2023-03-01T13:49:20;7.30;1.00
5150;DHT22;2593;52.466;13.436;2023-03-01T13:51:47;7.30;1.00
5150;DHT22;2593;52.466;13.436;2023-03-01T13:54:16;7.30;1.00
5150;DHT22;2593;52.466;13.436;2023-03-01T13:56:44;7.40;1.00
5150;DHT22;2593;52.466;13.436;2023-03-01T13:59:17;7.40;1.00
5150;DHT22;2593;52.466;13.436;2023-03-01T14:01:43;7.40;1.00
5150;DHT22;2593;52.466;13.436;2023-03-01T14:06:48;7.50;1.00
5150;DHT22;2593;52.466;13.436;2023-03-01T14:09:22;7.40;1.00
5150;DHT22;2593;52.466;13.436;2023-03-01T14:15:17;7.40;1.00
5150;DHT22;2593;52.466;13.436;2023-03-01T14:20:22;7.50;1.00
5150;DHT22;2593;52.466;13.436;2023-03-01T14:22:50;7.60;1.00
5150;DHT22;2593;52.466;13.436;2023-03-01T14:25:33;7.50;1.00
5150;DHT22;2593;52.466;13.436;2023-03-01T14:28:13;7.40;1.00
5150;DHT22;2593;52.466;13.436;2023-03-01T14:30:45;7.50;1.00
5150;DHT22;2593;52.466;13.436;2023-03-01T14:33:32;7.50;1.00
5150;DHT22;2593;52.466;13.436;2023-03-01T14:36:06;7.50;1.00
5150;DHT22;2593;52.466;13.436;2023-03-01T14:38:44;7.50;1.00
5150;DHT22;2593;52.466;13.436;2023-03-01T14:41:23;7.50;1.00
5150;DHT22;2593;52.466;13.436;2023-03-01T14:44:05;7.50;1.00
5150;DHT22;2593;52.466;13.436;2023-03-01T14:46:37;7.40;1.00
5150;DHT22;2593;52.466;13.436;2023-03-01T14:51:36;7.50;1.00
5150;DHT22;2593;52.466;13.436;2023-03-01T14:54:02;7.40;1.00
5150;DHT22;2593;52.466;13.436;2023-03-01T14:56:43;7.40;1.00
5150;DHT22;2593;52.466;13.436;2023-03-01T14:59:10;7.40;1.00
5150;DHT22;2593;52.466;13.436;2023-03-01T15:01:36;7.40;1.00
5150;DHT22;2593;52.466;13.436;2023-03-01T15:04:02;7.40;1.00
5150;DHT22;2593;52.466;13.436;2023-03-01T15:06:28;7.40;1.00
5150;DHT22;2593;52.466;13.436;2023-03-01T15:08:55;7.40;1.00
5150;DHT22;2593;52.466;13.436;2023-03-01T15:11:30;7.40;1.00
5150;DHT22;2593;52.466;13.436;2023-03-01T15:13:57;7.50;1.00
5150;DHT22;2593;52.466;13.436;2023-03-01T15:16:31;7.80;1.00
5150;DHT22;2593;52.466;13.436;2023-03-01T15:19:04;7.70;1.00
5150;DHT22;2593;52.466;13.436;2023-03-01T15:21:38;7.60;1.00
5150;DHT22;2593;52.466;13.436;2023-03-01T15:26:59;7.50;1.00
5150;DHT22;2593;52.466;13.436;2023-03-01T15:29:29;7.40;1.00
5150;DHT22;2593;52.466;13.436;2023-03-01T15:32:04;7.40;1.00
5150;DHT22;2593;52.466;13.436;2023-03-01T15:34:32;7.30;1.00
5150;DHT22;2593;52.466;13.436;2023-03-01T15:37:01;7.30;1.00
5150;DHT22;2593;52.466;13.436;2023-03-01T15:39:52;7.30;1.00
5150;DHT22;2593;52.466;13.436;2023-03-01T15:45:20;7.30;1.00
5150;DHT22;2593;52.466;13.436;2023-03-01T15:47:54;7.20;1.00
5150;DHT22;2593;52.466;13.436;2023-03-01T15:52:55;7.00;1.00
5150;DHT22;2593;52.466;13.436;2023-03-01T15:55:26;7.00;1.00
5150;DHT22;2593;52.466;13.436;2023-03-01T16:00:59;7.00;1.00
5150;DHT22;2593;52.466;13.436;2023-03-01T16:03:25;7.00;1.00
5150;DHT22;2593;52.466;13.436;2023-03-01T16:05:51;7.10;1.00
5150;DHT22;2593;52.466;13.436;2023-03-01T16:08:17;7.00;1.00
5150;DHT22;2593;52.466;13.436;2023-03-01T16:10:44;6.90;1.00
5150;DHT22;2593;52.466;13.436;2023-03-01T16:13:11;6.80;1.00
5150;DHT22;2593;52.466;13.436;2023-03-01T16:15:37;6.80;1.00
5150;DHT22;2593;52.466;13.436;2023-03-01T16:18:05;6.80;1.00
5150;DHT22;2593;52.466;13.436;2023-03-01T16:20:31;6.70;1.00
5150;DHT22;2593;52.466;13.436;2023-03-01T16:23:02;6.80;1.00
5150;DHT22;2593;52.466;13.436;2023-03-01T16:25:28;6.80;1.00
5150;DHT22;2593;52.466;13.436;2023-03-01T16:27:54;6.80;1.00
5150;DHT22;2593;52.466;13.436;2023-03-01T16:30:22;6.80;1.00
5150;DHT22;2593;52.466;13.436;2023-03-01T16:32:49;6.70;1.00
5150;DHT22;2593;52.466;13.436;2023-03-01T16:35:17;6.60;1.00
5150;DHT22;2593;52.466;13.436;2023-03-01T16:37:43;6.60;1.00
5150;DHT22;2593;52.466;13.436;2023-03-01T16:40:26;6.50;1.00
5150;DHT22;2593;52.466;13.436;2023-03-01T16:42:53;6.40;1.00
5150;DHT22;2593;52.466;13.436;2023-03-01T16:45:20;6.40;1.00
5150;DHT22;2593;52.466;13.436;2023-03-01T16:47:46;6.30;1.00
5150;DHT22;2593;52.466;13.436;2023-03-01T16:50:12;6.20;1.00
5150;DHT22;2593;52.466;13.436;2023-03-01T16:52:37;6.20;1.00
5150;DHT22;2593;52.466;13.436;2023-03-01T16:55:05;6.20;1.00
5150;DHT22;2593;52.466;13.436;2023-03-01T16:57:33;6.10;1.00
5150;DHT22;2593;52.466;13.436;2023-03-01T16:59:59;6.00;1.00
5150;DHT22;2593;52.466;13.436;2023-03-01T17:02:25;6.00;1.00
5150;DHT22;2593;52.466;13.436;2023-03-01T17:04:52;6.00;1.00
5150;DHT22;2593;52.466;13.436;2023-03-01T17:07:18;6.00;1.00
5150;DHT22;2593;52.466;13.436;2023-03-01T17:09:44;6.00;1.00
5150;DHT22;2593;52.466;13.436;2023-03-01T17:12:12;5.90;1.00
5150;DHT22;2593;52.466;13.436;2023-03-01T17:14:37;6.00;1.00
5150;DHT22;2593;52.466;13.436;2023-03-01T17:17:04;5.90;1.00
5150;DHT22;2593;52.466;13.436;2023-03-01T17:19:29;5.90;1.00
5150;DHT22;2593;52.466;13.436;2023-03-01T17:21:57;5.80;1.00
5150;DHT22;2593;52.466;13.436;2023-03-01T17:24:22;5.80;1.00
5150;DHT22;2593;52.466;13.436;2023-03-01T17:26:48;5.80;1.00
5150;DHT22;2593;52.466;13.436;2023-03-01T17:29:13;5.80;1.00
5150;DHT22;2593;52.466;13.436;2023-03-01T17:31:42;5.70;1.00
5150;DHT22;2593;52.466;13.436;2023-03-01T17:34:08;5.70;1.00
5150;DHT22;2593;52.466;13.436;2023-03-01T17:36:33;5.70;1.00
5150;DHT22;2593;52.466;13.436;2023-03-01T17:39:06;5.60;1.00
5150;DHT22;2593;52.466;13.436;2023-03-01T17:41:31;5.60;1.00
5150;DHT22;2593;52.466;13.436;2023-03-01T17:43:57;5.60;1.00
5150;DHT22;2593;52.466;13.436;2023-03-01T17:46:22;5.50;1.00
5150;DHT22;2593;52.466;13.436;2023-03-01T17:48:49;5.40;1.00
5150;DHT22;2593;52.466;13.436;2023-03-01T17:51:14;5.40;1.00
5150;DHT22;2593;52.466;13.436;2023-03-01T17:53:40;5.40;1.00
5150;DHT22;2593;52.466;13.436;2023-03-01T17:56:06;5.40;1.00
5150;DHT22;2593;52.466;13.436;2023-03-01T17:58:32;5.40;1.00
5150;DHT22;2593;52.466;13.436;2023-03-01T18:01:08;5.30;1.00
5150;DHT22;2593;52.466;13.436;2023-03-01T18:03:34;5.30;1.00
5150;DHT22;2593;52.466;13.436;2023-03-01T18:05:59;5.30;1.00
5150;DHT22;2593;52.466;13.436;2023-03-01T18:08:25;5.20;1.00
5150;DHT22;2593;52.466;13.436;2023-03-01T18:10:57;5.20;1.00
5150;DHT22;2593;52.466;13.436;2023-03-01T18:13:23;5.20;1.00
5150;DHT22;2593;52.466;13.436;2023-03-01T18:15:48;5.20;1.00
5150;DHT22;2593;52.466;13.436;2023-03-01T18:18:14;5.20;1.00
5150;DHT22;2593;52.466;13.436;2023-03-01T18:20:39;5.10;1.00
5150;DHT22;2593;52.466;13.436;2023-03-01T18:23:05;5.10;1.00
5150;DHT22;2593;52.466;13.436;2023-03-01T18:25:31;5.10;1.00
5150;DHT22;2593;52.466;13.436;2023-03-01T18:27:57;5.10;1.00
5150;DHT22;2593;52.466;13.436;2023-03-01T18:30:22;5.20;1.00
5150;DHT22;2593;52.466;13.436;2023-03-01T18:32:48;5.30;1.00
5150;DHT22;2593;52.466;13.436;2023-03-01T18:35:21;5.30;1.00
5150;DHT22;2593;52.466;13.436;2023-03-01T18:37:47;5.20;1.00
5150;DHT22;2593;52.466;13.436;2023-03-01T18:40:14;5.20;1.00
5150;DHT22;2593;52.466;13.436;2023-03-01T18:42:39;5.10;1.00
5150;DHT22;2593;52.466;13.436;2023-03-01T18:45:05;5.00;1.00